createdAt,value
2022-10-17T00:03:00.343Z,130.25
2022-10-17T00:06:13.087Z,133.93
2022-10-17T00:09:16.762Z,106.32
2022-10-17T00:12:20.787Z,126.37
2022-10-17T00:15:23.851Z,119.72
2022-10-17T00:18:27.284Z,112.50
2022-10-17T00:21:30.934Z,126.10
2022-10-17T00:24:34.848Z,109.78
2022-10-17T00:27:40.522Z,139.05
2022-10-17T00:30:44.398Z,123.63
2022-10-17T00:33:48.237Z,114.13
2022-10-17T00:36:52.634Z,96.53
2022-10-17T00:39:56.219Z,100.47
2022-10-17T00:42:59.555Z,101.88
2022-10-17T00:46:03.177Z,96.35
2022-10-17T00:49:09.678Z,95.47
2022-10-17T00:52:18.975Z,81.60
2022-10-17T00:55:30.214Z,85.05
2022-10-17T00:58:34.432Z,72.22
2022-10-17T01:01:38.246Z,87.88
2022-10-17T01:04:45.219Z,83.03
2022-10-17T01:07:51.641Z,69.83
2022-10-17T01:11:11.008Z,72.40
2022-10-17T01:14:33.425Z,71.25
2022-10-17T01:17:56.557Z,60.63
2022-10-17T01:21:41.002Z,58.30
2022-10-17T01:25:00.309Z,41.97
2022-10-17T01:28:37.721Z,39.25
2022-10-17T01:31:53.423Z,44.45
2022-10-17T01:35:27.756Z,50.97
2022-10-17T01:38:40.327Z,41.87
2022-10-17T01:41:52.859Z,48.23
2022-10-17T01:44:58.789Z,32.60
2022-10-17T01:48:07.900Z,29.50
2022-10-17T01:51:38.809Z,33.28
2022-10-17T01:54:50.584Z,88.20
2022-10-17T01:57:59.058Z,35.03
2022-10-17T02:01:07.342Z,55.40
2022-10-17T02:04:12.410Z,26.25
2022-10-17T02:07:19.309Z,30.83
2022-10-17T02:10:32.552Z,19.03
2022-10-17T02:13:42.977Z,24.73
2022-10-17T02:16:55.600Z,17.58
2022-10-17T02:20:18.483Z,19.10
2022-10-17T02:23:36.724Z,24.02
2022-10-17T02:27:12.551Z,36.70
2022-10-17T02:30:33.232Z,80.13
2022-10-17T02:34:02.112Z,12.68
2022-10-17T02:37:08.663Z,18.77
2022-10-17T02:40:15.053Z,21.25
2022-10-17T02:43:20.179Z,31.67
2022-10-17T02:46:27.735Z,53.07
2022-10-17T02:49:37.319Z,17.35
2022-10-17T02:52:54.039Z,23.88
2022-10-17T02:56:04.190Z,16.77
2022-10-17T02:59:12.359Z,10.50
2022-10-17T03:02:16.023Z,13.27
2022-10-17T03:05:23.883Z,17.05
2022-10-17T03:08:27.571Z,11.23
2022-10-17T03:11:32.540Z,17.73
2022-10-17T03:14:36.761Z,21.10
2022-10-17T03:17:41.190Z,27.67
2022-10-17T03:20:45.336Z,20.38
2022-10-17T03:23:49.612Z,20.10
2022-10-17T03:26:55.038Z,17.30
2022-10-17T03:29:59.733Z,21.83
2022-10-17T03:33:03.423Z,17.67
2022-10-17T03:36:14.121Z,33.63
2022-10-17T03:39:18.039Z,23.50
2022-10-17T03:42:22.135Z,19.40
2022-10-17T03:45:25.908Z,19.43
2022-10-17T03:48:31.873Z,11.10
2022-10-17T03:51:35.905Z,18.50
2022-10-17T03:54:43.668Z,18.42
2022-10-17T03:57:47.572Z,11.43
2022-10-17T04:00:53.970Z,7.87
2022-10-17T04:03:58.244Z,8.30
2022-10-17T04:07:05.858Z,10.45
2022-10-17T04:10:12.277Z,7.75
2022-10-17T04:13:16.055Z,10.20
2022-10-17T04:16:19.440Z,7.63
2022-10-17T04:19:32.580Z,10.73
2022-10-17T04:22:35.954Z,9.65
2022-10-17T04:25:39.291Z,8.52
2022-10-17T04:28:42.156Z,6.15
2022-10-17T04:31:45.209Z,3.40
2022-10-17T04:35:03.429Z,3.57
2022-10-17T04:38:08.197Z,5.15
2022-10-17T04:41:14.510Z,10.98
2022-10-17T04:44:17.499Z,9.15
2022-10-17T04:47:26.755Z,7.03
2022-10-17T04:50:31.111Z,7.30
2022-10-17T04:54:02.764Z,10.60
2022-10-17T04:57:06.367Z,6.57
2022-10-17T05:03:41.771Z,6.37
2022-10-17T05:06:45.464Z,2.60
2022-10-17T05:09:59.691Z,9.07
2022-10-17T05:13:02.722Z,3.95
2022-10-17T05:16:08.716Z,10.38
2022-10-17T05:19:12.662Z,12.10
2022-10-17T05:22:22.366Z,5.33
2022-10-17T05:25:26.363Z,7.97
2022-10-17T05:28:29.355Z,5.53
2022-10-17T05:31:36.210Z,18.77
2022-10-17T05:34:41.209Z,7.03
2022-10-17T05:37:45.259Z,9.53
2022-10-17T05:40:48.957Z,12.77
2022-10-17T05:43:52.178Z,12.50
2022-10-17T05:47:01.321Z,4.85
2022-10-17T05:50:05.084Z,3.00
2022-10-17T05:53:20.859Z,4.77
2022-10-17T05:56:27.363Z,7.72
2022-10-17T05:59:31.037Z,7.15
2022-10-17T06:02:46.389Z,8.52
2022-10-17T06:05:52.478Z,12.90
2022-10-17T06:08:57.038Z,6.57
2022-10-17T06:12:07.350Z,9.00
2022-10-17T06:15:11.352Z,5.78
2022-10-17T06:18:16.861Z,5.60
2022-10-17T06:21:24.621Z,15.63
2022-10-17T06:24:32.835Z,3.67
2022-10-17T06:27:39.760Z,5.05
2022-10-17T06:30:44.058Z,4.00
2022-10-17T06:33:47.883Z,8.88
2022-10-17T06:36:52.105Z,3.23
2022-10-17T06:39:56.096Z,8.53
2022-10-17T06:43:01.414Z,3.38
2022-10-17T06:46:30.275Z,4.03
2022-10-17T06:49:40.123Z,4.85
2022-10-17T06:53:15.888Z,6.80
2022-10-17T06:56:25.858Z,2.83
2022-10-17T06:59:59.106Z,3.22
2022-10-17T07:03:11.035Z,3.50
2022-10-17T07:06:14.738Z,4.03
2022-10-17T07:09:19.858Z,6.80
2022-10-17T07:12:24.785Z,4.83
2022-10-17T07:15:28.772Z,5.93
2022-10-17T07:18:32.084Z,3.65
2022-10-17T07:21:39.005Z,7.05
2022-10-17T07:24:46.195Z,8.27
2022-10-17T07:27:55.943Z,4.20
2022-10-17T07:31:05.366Z,2.05
2022-10-17T07:34:09.578Z,1.90
2022-10-17T07:37:13.146Z,3.20
2022-10-17T07:40:22.927Z,5.40
2022-10-17T07:43:29.144Z,7.73
2022-10-17T07:46:34.479Z,3.35
2022-10-17T07:49:42.971Z,3.63
2022-10-17T07:52:47.099Z,3.30
2022-10-17T07:55:51.903Z,3.60
2022-10-17T08:02:01.363Z,6.95
2022-10-17T08:05:05.563Z,8.35
2022-10-17T08:08:09.275Z,12.48
2022-10-17T08:11:15.831Z,11.97
2022-10-17T08:14:19.394Z,9.63
2022-10-17T08:17:23.161Z,6.50
2022-10-17T08:20:27.241Z,9.68
2022-10-17T08:23:31.319Z,6.30
2022-10-17T08:26:37.956Z,7.50
2022-10-17T08:29:43.419Z,9.00
2022-10-17T08:32:47.154Z,5.50
2022-10-17T08:35:51.200Z,8.07
2022-10-17T08:38:54.722Z,5.38
2022-10-17T08:42:19.109Z,6.03
2022-10-17T08:45:36.261Z,9.07
2022-10-17T08:48:46.708Z,7.22
2022-10-17T08:52:00.341Z,8.27
2022-10-17T08:55:04.240Z,7.05
2022-10-17T08:58:16.189Z,11.10
2022-10-17T09:01:47.142Z,10.83
2022-10-17T09:05:26.696Z,7.38
2022-10-17T09:09:11.644Z,6.72
2022-10-17T09:12:36.265Z,12.85
2022-10-17T09:15:45.325Z,21.33
2022-10-17T09:19:02.040Z,19.23
2022-10-17T09:22:14.362Z,23.50
2022-10-17T09:25:20.604Z,28.42
2022-10-17T09:28:26.813Z,85.80
2022-10-17T09:31:36.125Z,65.97
2022-10-17T09:34:40.135Z,85.83
2022-10-17T09:37:43.460Z,90.43
2022-10-17T09:40:57.423Z,81.90
2022-10-17T09:44:14.558Z,85.40
2022-10-17T09:47:24.343Z,117.47
2022-10-17T09:50:33.514Z,98.87
2022-10-17T09:53:40.787Z,104.13
2022-10-17T09:57:05.087Z,75.07
2022-10-17T10:00:20.742Z,86.25
2022-10-17T10:03:26.575Z,82.27
2022-10-17T10:06:30.505Z,74.33
2022-10-17T10:09:39.468Z,83.00
2022-10-17T10:13:04.540Z,84.82
2022-10-17T10:16:42.137Z,73.38
2022-10-17T10:19:51.906Z,64.83
2022-10-17T10:23:18.229Z,72.15
2022-10-17T10:26:28.042Z,91.82
2022-10-17T10:29:37.268Z,113.13
2022-10-17T10:32:40.624Z,122.13
2022-10-17T10:35:43.863Z,105.47
2022-10-17T10:38:54.976Z,98.75
2022-10-17T10:41:59.418Z,79.70
2022-10-17T10:45:42.845Z,97.32
2022-10-17T10:48:59.107Z,87.03
2022-10-17T10:52:05.617Z,104.47
2022-10-17T10:55:37.982Z,90.72
2022-10-17T10:59:05.622Z,83.30
2022-10-17T11:02:38.952Z,83.85
2022-10-17T11:05:59.755Z,109.40
2022-10-17T11:09:12.087Z,151.37
2022-10-17T11:12:24.363Z,178.57
2022-10-17T11:15:43.742Z,209.82
2022-10-17T11:19:16.778Z,195.95
2022-10-17T11:22:29.267Z,128.23
2022-10-17T11:25:37.277Z,103.70
2022-10-17T11:28:40.283Z,89.57
2022-10-17T11:31:50.112Z,64.63
2022-10-17T11:34:58.924Z,67.43
2022-10-17T11:38:21.311Z,67.25
2022-10-17T11:41:47.500Z,58.37
2022-10-17T11:44:57.449Z,50.25
2022-10-17T11:48:07.142Z,55.60
2022-10-17T11:54:46.202Z,77.82
2022-10-17T11:57:55.732Z,74.23
2022-10-17T12:01:32.678Z,78.93
2022-10-17T12:04:46.129Z,121.85
2022-10-17T12:08:16.554Z,120.32
2022-10-17T12:11:38.227Z,96.30
2022-10-17T12:14:48.125Z,108.13
2022-10-17T12:18:04.907Z,84.30
2022-10-17T12:21:08.617Z,89.22
2022-10-17T12:24:42.984Z,121.60
2022-10-17T12:27:48.114Z,115.10
2022-10-17T12:31:04.101Z,91.23
2022-10-17T12:34:18.480Z,71.47
2022-10-17T12:37:44.327Z,71.75
2022-10-17T12:40:51.388Z,93.43
2022-10-17T12:43:55.966Z,83.82
2022-10-17T12:47:10.078Z,88.17
2022-10-17T12:50:51.543Z,83.07
2022-10-17T12:54:03.046Z,101.57
2022-10-17T12:57:35.629Z,100.10
2022-10-17T13:01:11.685Z,129.23
2022-10-17T13:04:14.556Z,108.73
2022-10-17T13:07:23.486Z,123.70
2022-10-17T13:10:34.817Z,121.15
2022-10-17T13:13:52.773Z,117.75
2022-10-17T13:17:02.861Z,112.65
2022-10-17T13:20:29.051Z,105.80
2022-10-17T13:23:37.353Z,99.85
2022-10-17T13:26:46.342Z,92.50
2022-10-17T13:29:50.469Z,78.00
2022-10-17T13:32:53.825Z,73.63
2022-10-17T13:36:01.198Z,54.53
2022-10-17T13:39:13.661Z,51.35
2022-10-17T13:42:26.832Z,75.53
2022-10-17T13:45:33.204Z,50.80
2022-10-17T13:48:39.251Z,64.97
2022-10-17T13:51:48.353Z,69.47
2022-10-17T13:54:54.554Z,47.63
2022-10-17T13:57:57.919Z,54.45
2022-10-17T14:01:01.306Z,76.43
2022-10-17T14:04:11.643Z,98.78
2022-10-17T14:07:34.211Z,91.25
2022-10-17T14:10:43.655Z,112.68
2022-10-17T14:13:51.562Z,158.93
2022-10-17T14:16:55.645Z,188.85
2022-10-17T14:23:33.966Z,232.27
2022-10-17T14:26:54.011Z,149.93
2022-10-17T14:30:03.196Z,155.38
2022-10-17T14:33:13.439Z,170.23
2022-10-17T14:36:17.312Z,157.37
2022-10-17T14:39:25.046Z,155.75
2022-10-17T14:42:28.875Z,157.90
2022-10-17T14:45:38.086Z,139.52
2022-10-17T14:48:43.742Z,138.20
2022-10-17T14:52:18.941Z,145.73
2022-10-17T14:55:25.351Z,139.18
2022-10-17T14:58:34.286Z,152.73
2022-10-17T15:01:37.807Z,150.82
2022-10-17T15:04:42.225Z,142.70
2022-10-17T15:07:45.190Z,149.25
2022-10-17T15:10:49.713Z,136.73
2022-10-17T15:13:53.444Z,157.85
2022-10-17T15:16:56.809Z,148.50
2022-10-17T15:20:00.204Z,185.60
2022-10-17T15:23:04.836Z,181.07
2022-10-17T15:26:26.368Z,165.05
2022-10-17T15:29:29.933Z,133.82
2022-10-17T15:32:33.844Z,110.82
2022-10-17T15:35:37.976Z,97.43
2022-10-17T15:38:40.985Z,175.93
2022-10-17T15:41:45.069Z,232.70
2022-10-17T15:44:50.619Z,243.83
2022-10-17T15:47:57.170Z,235.57
2022-10-17T15:51:00.255Z,242.48
2022-10-17T15:54:05.477Z,231.43
2022-10-17T15:57:24.144Z,204.37
2022-10-17T16:00:28.476Z,177.32
2022-10-17T16:03:32.370Z,120.80
2022-10-17T16:06:36.498Z,117.72
2022-10-17T16:09:40.264Z,95.43
2022-10-17T16:12:44.452Z,86.90
2022-10-17T16:15:47.588Z,71.20
2022-10-17T16:18:50.604Z,91.32
2022-10-17T16:21:56.276Z,243.43
2022-10-17T16:25:08.415Z,228.52
2022-10-17T16:28:12.510Z,259.33
2022-10-17T16:31:37.203Z,327.47
2022-10-17T16:34:41.013Z,317.42
2022-10-17T16:37:44.727Z,272.92
2022-10-17T16:40:47.702Z,166.80
2022-10-17T16:43:51.777Z,193.33
2022-10-17T16:46:54.908Z,187.45
2022-10-17T16:49:58.679Z,217.93
2022-10-17T16:53:04.600Z,151.20
2022-10-17T16:56:09.192Z,132.13
2022-10-17T16:59:13.221Z,119.72
2022-10-17T17:02:18.921Z,116.35
2022-10-17T17:05:24.182Z,108.00
2022-10-17T17:08:27.928Z,117.27
2022-10-17T17:11:33.322Z,97.13
2022-10-17T17:14:36.515Z,142.73
2022-10-17T17:17:55.759Z,98.53
2022-10-17T17:21:01.371Z,134.43
2022-10-17T17:24:06.386Z,195.75
2022-10-17T17:27:12.822Z,288.70
2022-10-17T17:30:18.438Z,267.02
2022-10-17T17:33:25.492Z,261.33
2022-10-17T17:36:31.432Z,263.30
2022-10-17T17:39:35.099Z,260.20
2022-10-17T17:42:38.916Z,215.38
2022-10-17T17:45:42.684Z,203.07
2022-10-17T17:48:48.637Z,197.07
2022-10-17T17:51:51.589Z,140.57
2022-10-17T17:54:55.079Z,92.47
2022-10-17T17:57:58.072Z,82.33
2022-10-17T18:01:02.751Z,80.40
2022-10-17T18:04:09.138Z,109.82
2022-10-17T18:07:12.996Z,218.30
2022-10-17T18:10:16.960Z,201.33
2022-10-17T18:13:21.577Z,191.15
2022-10-17T18:16:26.550Z,186.52
2022-10-17T18:19:29.758Z,288.02
2022-10-17T18:22:33.136Z,247.63
2022-10-17T18:25:37.269Z,219.30
2022-10-17T18:31:45.361Z,192.65
2022-10-17T18:34:48.132Z,198.30
2022-10-17T18:37:51.090Z,190.75
2022-10-17T18:41:04.239Z,158.63
2022-10-17T18:44:07.568Z,121.73
2022-10-17T18:47:11.723Z,164.65
2022-10-17T18:50:15.712Z,144.80
2022-10-17T18:53:19.694Z,141.63
2022-10-17T18:56:24.331Z,123.22
2022-10-17T18:59:28.039Z,114.10
2022-10-17T19:02:35.526Z,108.97
2022-10-17T19:05:41.732Z,115.38
2022-10-17T19:08:46.139Z,160.70
2022-10-17T19:11:49.053Z,194.07
2022-10-17T19:14:53.577Z,200.13
2022-10-17T19:17:56.814Z,154.40
2022-10-17T19:21:04.926Z,172.65
2022-10-17T19:24:12.120Z,143.93
2022-10-17T19:27:16.079Z,118.43
2022-10-17T19:30:19.177Z,93.60
2022-10-17T19:33:23.189Z,81.60
2022-10-17T19:36:32.524Z,90.23
2022-10-17T19:39:36.684Z,81.95
2022-10-17T19:42:40.148Z,69.63
2022-10-17T19:45:43.010Z,96.95
2022-10-17T19:48:46.431Z,80.00
2022-10-17T19:51:50.083Z,75.60
2022-10-17T19:54:53.636Z,76.85
2022-10-17T19:57:59.689Z,76.87
2022-10-17T20:01:06.499Z,94.45
2022-10-17T20:04:11.402Z,90.28
2022-10-17T20:07:14.884Z,89.97
2022-10-17T20:10:19.528Z,87.25
2022-10-17T20:13:23.275Z,79.15
2022-10-17T20:16:30.188Z,86.10
2022-10-17T20:19:33.971Z,76.33
2022-10-17T20:22:36.913Z,87.18
2022-10-17T20:25:40.215Z,73.47
2022-10-17T20:28:43.843Z,85.07
2022-10-17T20:31:48.876Z,80.70
2022-10-17T20:34:51.789Z,56.55
2022-10-17T20:37:54.805Z,60.63
2022-10-17T20:41:05.409Z,66.57
2022-10-17T20:44:08.910Z,53.30
2022-10-17T20:47:16.237Z,48.63
2022-10-17T20:50:21.087Z,55.73
2022-10-17T20:53:36.692Z,44.08
2022-10-17T20:56:41.124Z,45.53
2022-10-17T20:59:46.374Z,43.57
2022-10-17T21:02:50.721Z,46.13
2022-10-17T21:05:54.638Z,42.67
2022-10-17T21:08:58.495Z,44.83
2022-10-17T21:12:02.237Z,38.53
2022-10-17T21:15:05.920Z,40.83
2022-10-17T21:18:09.493Z,37.25
2022-10-17T21:21:14.612Z,32.63
2022-10-17T21:24:20.067Z,32.70
2022-10-17T21:27:23.015Z,30.77
2022-10-17T21:30:26.952Z,30.80
2022-10-17T21:33:29.826Z,39.78
2022-10-17T21:36:33.047Z,40.03
2022-10-17T21:39:37.201Z,28.13
2022-10-17T21:42:40.732Z,26.63
2022-10-17T21:45:44.612Z,44.42
2022-10-17T21:48:49.227Z,60.78
2022-10-17T21:51:53.987Z,65.80
2022-10-17T21:54:56.989Z,58.05
2022-10-17T21:58:00.243Z,66.47
2022-10-17T22:01:17.272Z,73.83
2022-10-17T22:04:21.222Z,56.72
2022-10-17T22:07:24.540Z,69.65
2022-10-17T22:10:28.460Z,85.28
2022-10-17T22:13:32.115Z,71.90
2022-10-17T22:16:36.443Z,62.40
2022-10-17T22:19:39.980Z,61.47
2022-10-17T22:22:43.827Z,47.17
2022-10-17T22:25:57.690Z,54.25
2022-10-17T22:29:02.051Z,43.28
2022-10-17T22:32:05.301Z,28.00
2022-10-17T22:35:09.484Z,36.90
2022-10-17T22:38:13.273Z,33.10
2022-10-17T22:41:17.151Z,24.33
2022-10-17T22:44:20.379Z,49.28
2022-10-17T22:47:24.397Z,56.92
2022-10-17T22:50:27.916Z,54.85
2022-10-17T22:53:31.483Z,35.70
2022-10-17T22:56:35.154Z,27.13
2022-10-17T22:59:38.374Z,35.03
2022-10-17T23:02:41.527Z,29.47
2022-10-17T23:05:46.033Z,37.10
2022-10-17T23:08:49.128Z,30.30
2022-10-17T23:11:52.748Z,38.13
2022-10-17T23:14:55.709Z,30.80
2022-10-17T23:17:59.363Z,39.95
2022-10-17T23:21:02.308Z,64.65
2022-10-17T23:24:05.590Z,75.30
2022-10-17T23:27:08.462Z,78.60
2022-10-17T23:30:12.702Z,55.05
2022-10-17T23:33:16.382Z,59.73
2022-10-17T23:36:21.736Z,53.53
2022-10-17T23:39:24.666Z,69.07
2022-10-17T23:42:28.706Z,69.25
2022-10-17T23:45:36.065Z,69.05
2022-10-17T23:48:41.168Z,70.20
2022-10-17T23:51:44.002Z,89.90
2022-10-17T23:54:47.669Z,86.57
2022-10-17T23:57:51.199Z,86.20
